createdAt,value
2023-02-13T00:00:39.952Z,85.80
2023-02-13T00:01:42.413Z,85.94
2023-02-13T00:02:44.948Z,86.06
2023-02-13T00:03:47.373Z,86.06
2023-02-13T00:04:49.553Z,86.18
2023-02-13T00:05:51.752Z,86.16
2023-02-13T00:06:54.158Z,86.19
2023-02-13T00:07:57.345Z,85.96
2023-02-13T00:08:59.811Z,85.63
2023-02-13T00:10:02.092Z,85.91
2023-02-13T00:11:04.415Z,85.79
2023-02-13T00:12:08.185Z,86.19
2023-02-13T00:13:10.358Z,86.19
2023-02-13T00:14:12.519Z,86.15
2023-02-13T00:15:14.925Z,86.02
2023-02-13T00:16:17.206Z,86.16
2023-02-13T00:17:19.559Z,86.07
2023-02-13T00:18:21.923Z,85.94
2023-02-13T00:19:24.126Z,85.86
2023-02-13T00:20:26.345Z,85.86
2023-02-13T00:21:28.590Z,85.84
2023-02-13T00:22:30.879Z,86.12
2023-02-13T00:23:35.037Z,85.93
2023-02-13T00:24:37.262Z,86.04
2023-02-13T00:25:39.678Z,86.13
2023-02-13T00:26:42.174Z,86.45
2023-02-13T00:27:44.360Z,86.45
2023-02-13T00:28:46.594Z,86.46
2023-02-13T00:29:48.863Z,86.61
2023-02-13T00:30:51.583Z,86.67
2023-02-13T00:31:55.263Z,86.17
2023-02-13T00:32:58.040Z,85.78
2023-02-13T00:34:00.277Z,85.27
2023-02-13T00:35:03.231Z,84.76
2023-02-13T00:36:08.614Z,84.54
2023-02-13T00:37:11.278Z,84.44
2023-02-13T00:38:13.501Z,84.62
2023-02-13T00:39:15.895Z,84.67
2023-02-13T00:40:18.279Z,85.02
2023-02-13T00:41:21.272Z,85.22
2023-02-13T00:42:26.515Z,85.58
2023-02-13T00:43:28.833Z,85.89
2023-02-13T00:44:32.429Z,86.14
2023-02-13T00:45:36.601Z,86.23
2023-02-13T00:46:38.931Z,85.81
2023-02-13T00:47:41.390Z,85.50
2023-02-13T00:48:43.896Z,85.86
2023-02-13T00:49:46.587Z,85.93
2023-02-13T00:50:56.595Z,86.02
2023-02-13T00:52:04.939Z,86.10
2023-02-13T00:53:07.445Z,86.08
2023-02-13T00:54:09.636Z,86.21
2023-02-13T00:55:12.583Z,86.32
2023-02-13T00:56:14.743Z,86.62
2023-02-13T00:57:19.988Z,86.44
2023-02-13T00:58:23.398Z,85.89
2023-02-13T00:59:26.578Z,85.88
2023-02-13T01:00:28.948Z,86.18
2023-02-13T01:01:31.380Z,85.89
2023-02-13T01:02:36.216Z,85.67
2023-02-13T01:03:38.690Z,85.78
2023-02-13T01:04:41.296Z,85.60
2023-02-13T01:05:44.478Z,85.72
2023-02-13T01:06:46.711Z,85.80
2023-02-13T01:07:50.564Z,85.83
2023-02-13T01:08:52.952Z,86.05
2023-02-13T01:09:55.146Z,85.95
2023-02-13T01:10:57.979Z,85.64
2023-02-13T01:12:00.420Z,85.41
2023-02-13T01:13:02.750Z,85.10
2023-02-13T01:14:05.063Z,84.70
2023-02-13T01:15:07.632Z,84.29
2023-02-13T01:16:09.893Z,84.44
2023-02-13T01:17:12.319Z,85.02
2023-02-13T01:18:16.664Z,85.45
2023-02-13T01:19:18.869Z,85.68
2023-02-13T01:20:21.494Z,86.35
2023-02-13T01:21:24.471Z,86.32
2023-02-13T01:22:28.747Z,86.38
2023-02-13T01:23:37.315Z,86.02
2023-02-13T01:24:39.568Z,85.82
2023-02-13T01:25:42.695Z,86.54
2023-02-13T01:26:44.998Z,86.46
2023-02-13T01:27:48.298Z,86.25
2023-02-13T01:28:54.724Z,86.29
2023-02-13T01:29:56.973Z,86.47
2023-02-13T01:31:01.666Z,86.63
2023-02-13T01:32:05.195Z,86.39
2023-02-13T01:33:07.690Z,86.61
2023-02-13T01:34:09.975Z,86.59
2023-02-13T01:35:14.126Z,86.46
2023-02-13T01:36:16.528Z,86.58
2023-02-13T01:37:19.330Z,86.77
2023-02-13T01:38:21.846Z,86.79
2023-02-13T01:39:24.390Z,86.92
2023-02-13T01:40:30.278Z,87.15
2023-02-13T01:41:32.599Z,87.42
2023-02-13T01:42:35.800Z,87.38
2023-02-13T01:43:44.088Z,87.37
2023-02-13T01:44:47.818Z,87.34
2023-02-13T01:45:57.761Z,87.30
2023-02-13T01:47:00.152Z,87.07
2023-02-13T01:48:16.713Z,86.71
2023-02-13T01:49:23.648Z,86.80
2023-02-13T01:50:41.259Z,86.62
2023-02-13T01:51:44.899Z,86.73
2023-02-13T01:53:02.789Z,87.06
2023-02-13T01:54:10.853Z,87.25
2023-02-13T01:55:14.881Z,87.44
2023-02-13T01:56:42.880Z,86.96
2023-02-13T01:57:52.668Z,85.80
2023-02-13T01:58:59.354Z,85.11
2023-02-13T02:00:13.782Z,85.23
2023-02-13T02:01:23.429Z,85.33
2023-02-13T02:02:26.512Z,85.69
2023-02-13T02:03:47.822Z,85.69
2023-02-13T02:04:51.339Z,85.89
2023-02-13T02:05:57.172Z,85.49
2023-02-13T02:07:10.864Z,85.11
2023-02-13T02:08:14.649Z,85.21
2023-02-13T02:09:21.266Z,85.40
2023-02-13T02:10:24.010Z,85.27
2023-02-13T02:11:34.838Z,84.94
2023-02-13T02:12:45.880Z,84.64
2023-02-13T02:13:48.505Z,84.53
2023-02-13T02:14:54.385Z,84.76
2023-02-13T02:15:58.127Z,84.76
2023-02-13T02:17:00.575Z,85.17
2023-02-13T02:18:02.920Z,85.15
2023-02-13T02:19:14.814Z,85.09
2023-02-13T02:20:59.308Z,84.69
2023-02-13T02:22:19.401Z,84.56
2023-02-13T02:24:17.237Z,84.59
2023-02-13T02:25:40.592Z,84.84
2023-02-13T02:27:08.828Z,85.07
2023-02-13T02:29:05.059Z,84.98
2023-02-13T02:30:35.059Z,84.86
2023-02-13T02:31:47.431Z,85.19
2023-02-13T02:32:56.802Z,85.79
2023-02-13T02:34:20.779Z,86.21
2023-02-13T02:35:50.049Z,85.88
2023-02-13T02:37:35.523Z,86.09
2023-02-13T02:39:05.875Z,86.82
2023-02-13T02:40:29.399Z,86.55
2023-02-13T02:41:54.732Z,85.74
2023-02-13T02:43:09.376Z,85.76
2023-02-13T02:44:42.971Z,85.42
2023-02-13T02:46:17.208Z,85.47
2023-02-13T02:47:58.100Z,85.62
2023-02-13T02:49:34.488Z,86.25
2023-02-13T02:50:58.959Z,86.58
2023-02-13T02:52:15.741Z,86.87
2023-02-13T02:53:23.825Z,86.56
2023-02-13T02:54:49.299Z,86.53
2023-02-13T02:56:06.102Z,86.39
2023-02-13T02:57:15.720Z,86.45
2023-02-13T02:59:11.485Z,86.40
2023-02-13T03:00:36.222Z,86.47
2023-02-13T03:01:57.486Z,87.08
2023-02-13T03:03:18.743Z,87.18
2023-02-13T03:04:52.485Z,87.13
2023-02-13T03:06:11.313Z,86.90
2023-02-13T03:07:16.925Z,86.96
2023-02-13T03:08:39.601Z,86.85
2023-02-13T03:10:05.593Z,87.19
2023-02-13T03:11:28.176Z,87.42
2023-02-13T03:12:56.630Z,87.81
2023-02-13T03:14:03.170Z,88.33
2023-02-13T03:15:05.683Z,88.60
2023-02-13T03:16:32.774Z,88.75
2023-02-13T03:17:54.559Z,88.99
2023-02-13T03:19:17.078Z,89.61
2023-02-13T03:20:57.724Z,89.96
2023-02-13T03:22:19.963Z,90.21
2023-02-13T03:24:06.194Z,90.49
2023-02-13T03:25:19.017Z,90.93
2023-02-13T03:27:14.608Z,91.17
2023-02-13T03:28:50.245Z,91.49
2023-02-13T03:30:13.836Z,91.59
2023-02-13T03:31:27.907Z,92.00
2023-02-13T03:32:55.335Z,92.09
2023-02-13T03:34:12.228Z,92.23
2023-02-13T03:35:43.856Z,92.45
2023-02-13T03:37:28.184Z,92.61
2023-02-13T03:38:44.973Z,92.43
2023-02-13T03:40:31.841Z,92.67
2023-02-13T03:41:45.822Z,93.01
2023-02-13T03:43:04.991Z,92.89
2023-02-13T03:44:16.349Z,93.10
2023-02-13T03:45:47.719Z,93.10
2023-02-13T03:46:52.985Z,93.21
2023-02-13T03:47:58.394Z,93.52
2023-02-13T03:49:23.473Z,93.20
2023-02-13T03:50:27.784Z,92.99
2023-02-13T03:51:29.967Z,92.71
2023-02-13T03:52:47.470Z,93.04
2023-02-13T03:53:55.865Z,93.18
2023-02-13T03:55:25.941Z,93.47
2023-02-13T03:56:50.930Z,93.59
2023-02-13T03:58:15.678Z,93.66
2023-02-13T03:59:32.751Z,93.67
2023-02-13T04:00:43.062Z,93.70
2023-02-13T04:01:52.448Z,93.47
2023-02-13T04:03:05.821Z,93.10
2023-02-13T04:04:18.258Z,93.30
2023-02-13T04:05:27.911Z,93.20
2023-02-13T04:06:34.159Z,93.33
2023-02-13T04:07:36.579Z,93.14
2023-02-13T04:08:39.046Z,93.04
2023-02-13T04:09:43.380Z,93.15
2023-02-13T04:10:58.893Z,93.03
2023-02-13T04:12:10.451Z,93.02
2023-02-13T04:13:33.729Z,93.27
2023-02-13T04:14:45.860Z,93.10
2023-02-13T04:15:57.566Z,93.18
2023-02-13T04:17:06.045Z,92.96
2023-02-13T04:18:16.409Z,92.99
2023-02-13T04:19:19.965Z,92.90
2023-02-13T04:20:22.398Z,92.70
2023-02-13T04:21:24.691Z,92.59
2023-02-13T04:22:27.086Z,92.25
2023-02-13T04:23:29.470Z,92.14
2023-02-13T04:24:32.209Z,92.12
2023-02-13T04:25:36.171Z,92.06
2023-02-13T04:26:41.589Z,91.93
2023-02-13T04:27:44.075Z,91.46
2023-02-13T04:28:46.532Z,91.59
2023-02-13T04:29:48.805Z,91.73
2023-02-13T04:30:51.156Z,91.72
2023-02-13T04:31:53.556Z,91.43
2023-02-13T04:32:56.102Z,91.49
2023-02-13T04:33:58.289Z,91.58
2023-02-13T04:35:00.682Z,91.45
2023-02-13T04:36:03.054Z,91.25
2023-02-13T04:37:05.352Z,91.20
2023-02-13T04:38:07.636Z,91.24
2023-02-13T04:39:11.355Z,90.95
2023-02-13T04:40:13.683Z,90.71
2023-02-13T04:41:16.457Z,90.66
2023-02-13T04:42:18.691Z,90.30
2023-02-13T04:43:21.204Z,90.13
2023-02-13T04:44:23.381Z,90.08
2023-02-13T04:45:25.703Z,90.31
2023-02-13T04:46:28.240Z,90.57
2023-02-13T04:47:30.571Z,90.62
2023-02-13T04:48:32.875Z,90.55
2023-02-13T04:49:35.302Z,90.84
2023-02-13T04:50:37.709Z,90.87
2023-02-13T04:51:40.320Z,90.76
2023-02-13T04:52:42.543Z,90.39
2023-02-13T04:53:44.750Z,90.11
2023-02-13T04:54:47.102Z,90.03
2023-02-13T04:55:49.286Z,89.73
2023-02-13T04:56:51.863Z,89.46
2023-02-13T04:57:55.453Z,89.33
2023-02-13T04:58:57.656Z,89.15
2023-02-13T04:59:59.898Z,89.13
2023-02-13T05:01:02.123Z,88.67
2023-02-13T05:02:04.471Z,88.56
2023-02-13T05:03:08.674Z,88.74
2023-02-13T05:04:16.142Z,88.72
2023-02-13T05:05:19.133Z,88.54
2023-02-13T05:06:21.361Z,88.74
2023-02-13T05:07:23.797Z,88.83
2023-02-13T05:08:26.026Z,88.73
2023-02-13T05:09:28.457Z,88.76
2023-02-13T05:10:31.409Z,88.77
2023-02-13T05:11:33.927Z,88.47
2023-02-13T05:12:36.356Z,88.27
2023-02-13T05:13:38.963Z,88.22
2023-02-13T05:14:41.192Z,88.14
2023-02-13T05:15:43.418Z,87.33
2023-02-13T05:16:46.074Z,86.53
2023-02-13T05:17:48.290Z,86.35
2023-02-13T05:18:54.811Z,86.16
2023-02-13T05:19:57.274Z,86.14
2023-02-13T05:21:18.018Z,86.14
2023-02-13T05:22:39.496Z,86.45
2023-02-13T05:23:41.940Z,86.66
2023-02-13T05:24:44.415Z,87.05
2023-02-13T05:25:46.631Z,87.18
2023-02-13T05:26:48.894Z,87.22
2023-02-13T05:27:51.312Z,87.72
2023-02-13T05:29:12.033Z,87.67
2023-02-13T05:30:14.944Z,87.15
2023-02-13T05:31:17.267Z,87.39
2023-02-13T05:32:19.782Z,87.33
2023-02-13T05:33:22.140Z,87.12
2023-02-13T05:34:26.976Z,87.43
2023-02-13T05:35:29.386Z,87.13
2023-02-13T05:36:31.562Z,87.23
2023-02-13T05:37:33.817Z,87.25
2023-02-13T05:38:38.214Z,87.32
2023-02-13T05:39:40.567Z,87.40
2023-02-13T05:40:42.771Z,87.12
2023-02-13T05:41:45.978Z,86.79
2023-02-13T05:42:48.167Z,86.93
2023-02-13T05:43:50.461Z,86.93
2023-02-13T05:44:52.829Z,87.07
2023-02-13T05:46:05.816Z,87.45
2023-02-13T05:47:08.269Z,87.63
2023-02-13T05:48:10.684Z,87.81
2023-02-13T05:49:15.194Z,87.72
2023-02-13T05:50:17.753Z,87.97
2023-02-13T05:51:20.743Z,87.81
2023-02-13T05:52:23.225Z,87.60
2023-02-13T05:53:25.488Z,87.55
2023-02-13T05:54:27.692Z,87.71
2023-02-13T05:55:29.947Z,87.98
2023-02-13T05:56:32.159Z,88.12
2023-02-13T05:57:34.882Z,87.93
2023-02-13T05:58:37.783Z,88.28
2023-02-13T05:59:40.184Z,87.94
2023-02-13T06:00:42.616Z,87.71
2023-02-13T06:01:44.923Z,87.87
2023-02-13T06:02:47.356Z,88.06
2023-02-13T06:03:50.247Z,88.33
2023-02-13T06:04:52.539Z,88.61
2023-02-13T06:05:55.724Z,88.59
2023-02-13T06:06:57.943Z,88.80
2023-02-13T06:08:00.131Z,88.81
2023-02-13T06:09:02.965Z,88.89
2023-02-13T06:10:05.835Z,89.08
2023-02-13T06:11:09.308Z,88.53
2023-02-13T06:12:11.685Z,88.23
2023-02-13T06:13:14.082Z,88.31
2023-02-13T06:14:16.682Z,87.92
2023-02-13T06:15:18.894Z,88.05
2023-02-13T06:16:22.561Z,88.02
2023-02-13T06:17:24.803Z,88.16
2023-02-13T06:18:27.044Z,88.32
2023-02-13T06:19:29.751Z,88.44
2023-02-13T06:20:32.418Z,88.13
2023-02-13T06:21:37.945Z,87.73
2023-02-13T06:22:40.177Z,87.95
2023-02-13T06:23:42.456Z,88.01
2023-02-13T06:24:44.961Z,87.27
2023-02-13T06:25:47.155Z,87.19
2023-02-13T06:26:49.960Z,87.48
2023-02-13T06:27:52.366Z,87.38
2023-02-13T06:28:54.762Z,87.61
2023-02-13T06:29:57.004Z,87.71
2023-02-13T06:30:59.892Z,87.83
2023-02-13T06:32:02.409Z,87.94
2023-02-13T06:33:04.736Z,88.02
2023-02-13T06:34:07.268Z,88.36
2023-02-13T06:35:09.898Z,88.17
2023-02-13T06:36:12.106Z,87.95
2023-02-13T06:37:14.339Z,87.92
2023-02-13T06:38:19.129Z,88.16
2023-02-13T06:39:21.383Z,88.83
2023-02-13T06:40:23.723Z,88.74
2023-02-13T06:41:26.228Z,88.71
2023-02-13T06:42:28.489Z,88.40
2023-02-13T06:43:31.079Z,88.29
2023-02-13T06:44:33.536Z,88.56
2023-02-13T06:45:37.644Z,88.43
2023-02-13T06:46:40.143Z,88.22
2023-02-13T06:47:47.700Z,88.40
2023-02-13T06:48:50.119Z,88.54
2023-02-13T06:49:52.502Z,88.68
2023-02-13T06:50:55.022Z,88.85
2023-02-13T06:51:57.584Z,88.83
2023-02-13T06:52:59.925Z,88.84
2023-02-13T06:54:02.671Z,88.62
2023-02-13T06:55:05.752Z,88.56
2023-02-13T06:56:08.025Z,88.43
2023-02-13T06:57:10.550Z,88.20
2023-02-13T06:58:12.743Z,88.17
2023-02-13T06:59:15.032Z,88.07
2023-02-13T07:00:19.040Z,87.91
2023-02-13T07:01:21.594Z,87.64
2023-02-13T07:02:24.146Z,87.48
2023-02-13T07:03:26.493Z,87.31
2023-02-13T07:04:29.102Z,87.25
2023-02-13T07:05:32.381Z,86.99
2023-02-13T07:06:34.732Z,87.26
2023-02-13T07:07:38.811Z,87.24
2023-02-13T07:08:41.246Z,87.34
2023-02-13T07:09:43.698Z,87.12
2023-02-13T07:10:46.170Z,87.47
2023-02-13T07:11:48.464Z,87.19
2023-02-13T07:13:03.660Z,86.87
2023-02-13T07:14:08.179Z,86.88
2023-02-13T07:15:11.570Z,86.81
2023-02-13T07:16:14.418Z,87.07
2023-02-13T07:17:16.693Z,86.61
2023-02-13T07:18:18.884Z,86.30
2023-02-13T07:19:21.307Z,85.88
2023-02-13T07:20:24.162Z,85.38
2023-02-13T07:21:26.867Z,84.97
2023-02-13T07:22:31.857Z,84.67
2023-02-13T07:23:34.390Z,84.91
2023-02-13T07:24:38.567Z,84.96
2023-02-13T07:25:40.771Z,85.00
2023-02-13T07:26:43.361Z,85.66
2023-02-13T07:27:45.873Z,85.94
2023-02-13T07:28:48.064Z,85.66
2023-02-13T07:29:50.458Z,85.67
2023-02-13T07:30:56.324Z,85.58
2023-02-13T07:31:58.952Z,85.26
2023-02-13T07:33:02.356Z,84.27
2023-02-13T07:34:04.539Z,83.86
2023-02-13T07:35:07.001Z,83.15
2023-02-13T07:36:09.583Z,82.76
2023-02-13T07:37:11.880Z,83.22
2023-02-13T07:38:14.501Z,82.84
2023-02-13T07:39:16.726Z,82.06
2023-02-13T07:40:19.279Z,81.49
2023-02-13T07:41:21.729Z,81.25
2023-02-13T07:42:23.941Z,81.22
2023-02-13T07:43:26.454Z,80.64
2023-02-13T07:44:28.640Z,80.68
2023-02-13T07:45:31.138Z,81.24
2023-02-13T07:46:33.475Z,81.29
2023-02-13T07:47:35.756Z,81.38
2023-02-13T07:48:39.893Z,80.86
2023-02-13T07:49:42.248Z,80.70
2023-02-13T07:50:44.472Z,80.77
2023-02-13T07:51:46.872Z,80.46
2023-02-13T07:53:00.491Z,80.41
2023-02-13T07:54:03.041Z,80.37
2023-02-13T07:55:06.164Z,79.74
2023-02-13T07:56:09.961Z,79.87
2023-02-13T07:57:12.414Z,79.98
2023-02-13T07:58:14.600Z,79.97
2023-02-13T07:59:16.795Z,80.35
2023-02-13T08:00:19.874Z,80.28
2023-02-13T08:01:22.126Z,80.43
2023-02-13T08:02:24.877Z,80.25
2023-02-13T08:03:27.088Z,79.83
2023-02-13T08:04:29.330Z,79.80
2023-02-13T08:05:33.067Z,80.03
2023-02-13T08:06:35.366Z,80.12
2023-02-13T08:07:38.139Z,80.24
2023-02-13T08:08:40.413Z,80.29
2023-02-13T08:10:04.232Z,80.14
2023-02-13T08:11:31.560Z,79.88
2023-02-13T08:12:36.182Z,79.46
2023-02-13T08:13:38.809Z,79.03
2023-02-13T08:14:41.074Z,78.88
2023-02-13T08:15:47.114Z,79.07
2023-02-13T08:16:49.983Z,78.92
2023-02-13T08:17:52.364Z,78.99
2023-02-13T08:18:54.591Z,79.05
2023-02-13T08:19:57.126Z,78.60
2023-02-13T08:21:01.451Z,78.91
2023-02-13T08:22:04.096Z,78.79
2023-02-13T08:23:09.724Z,79.07
2023-02-13T08:24:12.698Z,79.35
2023-02-13T08:25:14.905Z,78.85
2023-02-13T08:26:17.077Z,79.20
2023-02-13T08:27:19.952Z,78.82
2023-02-13T08:28:22.702Z,78.90
2023-02-13T08:29:24.953Z,79.06
2023-02-13T08:30:28.834Z,78.98
2023-02-13T08:31:31.197Z,78.98
2023-02-13T08:32:44.882Z,78.93
2023-02-13T08:33:57.549Z,78.74
2023-02-13T08:34:59.779Z,79.11
2023-02-13T08:36:04.776Z,79.77
2023-02-13T08:37:07.308Z,80.01
2023-02-13T08:38:10.163Z,79.96
2023-02-13T08:39:12.568Z,80.36
2023-02-13T08:40:14.974Z,80.47
2023-02-13T08:41:22.173Z,80.54
2023-02-13T08:42:24.391Z,80.66
2023-02-13T08:43:28.861Z,80.33
2023-02-13T08:44:31.501Z,80.19
2023-02-13T08:45:34.411Z,80.53
2023-02-13T08:46:36.876Z,80.44
2023-02-13T08:47:39.975Z,80.74
2023-02-13T08:48:42.564Z,80.86
2023-02-13T08:49:44.758Z,81.03
2023-02-13T08:50:47.048Z,81.36
2023-02-13T08:51:50.360Z,82.02
2023-02-13T08:52:52.692Z,82.26
2023-02-13T08:53:55.012Z,82.17
2023-02-13T08:55:00.316Z,81.99
2023-02-13T08:56:03.048Z,82.25
2023-02-13T08:57:05.481Z,82.45
2023-02-13T08:58:07.977Z,82.71
2023-02-13T08:59:10.247Z,82.77
2023-02-13T09:00:13.556Z,82.81
2023-02-13T09:01:16.486Z,82.64
2023-02-13T09:02:18.958Z,82.92
2023-02-13T09:03:21.245Z,83.04
2023-02-13T09:04:23.448Z,83.12
2023-02-13T09:05:25.906Z,83.18
2023-02-13T09:06:28.514Z,83.15
2023-02-13T09:07:31.136Z,82.88
2023-02-13T09:08:35.981Z,82.89
2023-02-13T09:09:38.489Z,82.18
2023-02-13T09:10:43.773Z,81.88
2023-02-13T09:11:45.982Z,81.80
2023-02-13T09:12:54.852Z,82.14
2023-02-13T09:13:57.285Z,82.27
2023-02-13T09:14:59.502Z,82.63
2023-02-13T09:16:06.894Z,82.23
2023-02-13T09:17:09.203Z,82.29
2023-02-13T09:18:11.750Z,82.12
2023-02-13T09:19:13.986Z,82.23
2023-02-13T09:20:16.330Z,82.42
2023-02-13T09:21:21.165Z,82.30
2023-02-13T09:22:23.449Z,82.40
2023-02-13T09:23:25.792Z,82.70
2023-02-13T09:24:30.113Z,82.39
2023-02-13T09:25:32.608Z,82.48
2023-02-13T09:26:35.094Z,82.45
2023-02-13T09:27:39.147Z,82.17
2023-02-13T09:28:42.205Z,82.25
2023-02-13T09:29:45.230Z,82.61
2023-02-13T09:30:49.190Z,82.41
2023-02-13T09:31:51.737Z,82.62
2023-02-13T09:32:55.590Z,82.91
2023-02-13T09:33:58.034Z,82.90
2023-02-13T09:35:00.537Z,82.79
2023-02-13T09:36:07.064Z,82.78
2023-02-13T09:37:09.310Z,82.56
2023-02-13T09:38:12.380Z,82.58
2023-02-13T09:39:14.655Z,82.88
2023-02-13T09:40:29.379Z,83.00
2023-02-13T09:41:37.080Z,83.52
2023-02-13T09:42:39.839Z,84.42
2023-02-13T09:43:49.382Z,84.49
2023-02-13T09:44:55.895Z,84.80
2023-02-13T09:46:09.969Z,84.84
2023-02-13T09:47:24.592Z,84.44
2023-02-13T09:48:34.564Z,84.34
2023-02-13T09:49:40.469Z,84.31
2023-02-13T09:50:42.787Z,83.79
2023-02-13T09:51:48.614Z,83.70
2023-02-13T09:52:53.471Z,83.46
2023-02-13T09:54:00.478Z,83.37
2023-02-13T09:55:08.193Z,83.04
2023-02-13T09:56:17.542Z,82.61
2023-02-13T09:57:28.802Z,82.58
2023-02-13T09:58:51.999Z,82.54
2023-02-13T10:00:19.804Z,82.03
2023-02-13T10:01:41.413Z,82.24
2023-02-13T10:02:57.523Z,82.14
2023-02-13T10:04:08.261Z,82.51
2023-02-13T10:05:22.211Z,82.61
2023-02-13T10:06:32.022Z,82.93
2023-02-13T10:07:44.263Z,83.13
2023-02-13T10:08:59.174Z,83.05
2023-02-13T10:10:25.398Z,83.38
2023-02-13T10:12:09.854Z,83.80
2023-02-13T10:13:23.597Z,83.75
2023-02-13T10:14:45.631Z,83.72
2023-02-13T10:15:58.105Z,83.94
2023-02-13T10:17:31.534Z,83.84
2023-02-13T10:18:56.752Z,83.40
2023-02-13T10:20:24.923Z,83.26
2023-02-13T10:21:33.782Z,83.01
2023-02-13T10:22:43.111Z,82.90
2023-02-13T10:23:50.768Z,82.48
2023-02-13T10:25:03.144Z,82.05
2023-02-13T10:26:22.193Z,81.84
2023-02-13T10:27:25.516Z,81.46
2023-02-13T10:28:46.518Z,81.32
2023-02-13T10:30:09.335Z,81.37
2023-02-13T10:31:19.280Z,81.51
2023-02-13T10:32:29.842Z,81.58
2023-02-13T10:33:36.368Z,81.56
2023-02-13T10:34:43.906Z,81.35
2023-02-13T10:36:01.338Z,81.22
2023-02-13T10:37:12.353Z,81.12
2023-02-13T10:38:19.126Z,81.31
2023-02-13T10:39:27.046Z,81.21
2023-02-13T10:40:38.286Z,80.98
2023-02-13T10:41:46.281Z,80.77
2023-02-13T10:43:09.730Z,80.25
2023-02-13T10:44:30.018Z,80.46
2023-02-13T10:46:07.127Z,80.13
2023-02-13T10:47:40.000Z,79.46
2023-02-13T10:48:50.926Z,78.82
2023-02-13T10:50:05.491Z,78.73
2023-02-13T10:51:35.999Z,77.70
2023-02-13T10:52:50.142Z,77.19
2023-02-13T10:53:58.097Z,77.22
2023-02-13T10:55:47.888Z,76.93
2023-02-13T10:57:07.291Z,76.81
2023-02-13T10:58:38.668Z,75.75
2023-02-13T10:59:51.976Z,75.99
2023-02-13T11:00:59.442Z,76.33
2023-02-13T11:02:24.616Z,76.46
2023-02-13T11:03:28.868Z,76.09
2023-02-13T11:04:32.342Z,76.00
2023-02-13T11:05:39.815Z,75.35
2023-02-13T11:06:50.911Z,74.92
2023-02-13T11:07:53.222Z,75.35
2023-02-13T11:08:55.686Z,75.78
2023-02-13T11:10:13.295Z,75.55
2023-02-13T11:11:48.295Z,74.72
2023-02-13T11:12:51.450Z,74.37
2023-02-13T11:14:07.884Z,73.61
2023-02-13T11:15:21.708Z,73.21
2023-02-13T11:16:24.166Z,73.20
2023-02-13T11:17:30.459Z,73.58
2023-02-13T11:18:37.221Z,73.77
2023-02-13T11:19:51.649Z,72.98
2023-02-13T11:21:07.890Z,72.52
2023-02-13T11:22:16.594Z,72.25
2023-02-13T11:23:24.529Z,71.57
2023-02-13T11:24:28.551Z,71.42
2023-02-13T11:25:31.290Z,70.79
2023-02-13T11:26:36.706Z,70.43
2023-02-13T11:27:40.523Z,70.56
2023-02-13T11:28:50.180Z,70.18
2023-02-13T11:29:58.412Z,70.31
2023-02-13T11:31:12.421Z,70.52
2023-02-13T11:32:14.984Z,70.47
2023-02-13T11:33:17.640Z,70.31
2023-02-13T11:34:22.819Z,70.91
2023-02-13T11:35:30.713Z,70.60
2023-02-13T11:36:34.309Z,70.34
2023-02-13T11:37:36.784Z,69.60
2023-02-13T11:38:39.026Z,69.32
2023-02-13T11:39:43.335Z,69.10
2023-02-13T11:40:52.761Z,68.78
2023-02-13T11:41:55.145Z,68.77
2023-02-13T11:42:57.621Z,68.53
2023-02-13T11:44:04.201Z,68.83
2023-02-13T11:45:21.842Z,68.77
2023-02-13T11:46:26.799Z,68.43
2023-02-13T11:47:56.097Z,68.21
2023-02-13T11:49:03.184Z,68.15
2023-02-13T11:50:20.453Z,67.28
2023-02-13T11:51:45.282Z,67.43
2023-02-13T11:52:56.729Z,66.83
2023-02-13T11:54:01.260Z,66.62
2023-02-13T11:55:06.670Z,67.16
2023-02-13T11:56:15.724Z,66.34
2023-02-13T11:57:33.733Z,66.31
2023-02-13T11:58:36.795Z,66.19
2023-02-13T11:59:42.388Z,65.22
2023-02-13T12:00:44.810Z,65.02
2023-02-13T12:01:50.328Z,65.12
2023-02-13T12:02:53.127Z,64.68
2023-02-13T12:04:16.494Z,64.76
2023-02-13T12:05:25.767Z,64.94
2023-02-13T12:06:28.236Z,64.56
2023-02-13T12:07:32.401Z,64.39
2023-02-13T12:08:39.559Z,64.07
2023-02-13T12:09:44.073Z,64.01
2023-02-13T12:10:46.549Z,63.65
2023-02-13T12:11:51.542Z,63.52
2023-02-13T12:13:18.593Z,64.12
2023-02-13T12:14:25.126Z,64.03
2023-02-13T12:15:30.940Z,63.91
2023-02-13T12:16:43.149Z,63.11
2023-02-13T12:17:49.419Z,63.53
2023-02-13T12:18:56.084Z,63.82
2023-02-13T12:19:58.603Z,64.05
2023-02-13T12:21:01.150Z,63.57
2023-02-13T12:22:07.096Z,63.12
2023-02-13T12:23:44.217Z,63.65
2023-02-13T12:24:49.102Z,63.73
2023-02-13T12:25:57.919Z,64.12
2023-02-13T12:27:33.251Z,63.95
2023-02-13T12:29:12.943Z,63.85
2023-02-13T12:30:46.329Z,63.75
2023-02-13T12:32:19.540Z,63.60
2023-02-13T12:34:12.814Z,63.77
2023-02-13T12:35:31.817Z,64.12
2023-02-13T12:36:55.217Z,64.37
2023-02-13T12:38:04.190Z,64.60
2023-02-13T12:39:25.560Z,65.11
2023-02-13T12:41:07.655Z,65.47
2023-02-13T12:42:32.333Z,65.32
2023-02-13T12:43:53.204Z,65.50
2023-02-13T12:45:14.293Z,64.90
2023-02-13T12:46:40.109Z,64.27
2023-02-13T12:47:48.174Z,64.53
2023-02-13T12:49:14.854Z,64.33
2023-02-13T12:50:43.789Z,64.63
2023-02-13T12:52:12.324Z,64.70
2023-02-13T12:53:20.790Z,63.87
2023-02-13T12:55:01.562Z,63.43
2023-02-13T12:56:36.156Z,63.00
2023-02-13T12:57:41.424Z,61.67
2023-02-13T12:58:49.854Z,62.30
2023-02-13T13:00:29.853Z,62.37
2023-02-13T13:01:53.769Z,61.94
2023-02-13T13:03:19.323Z,62.01
2023-02-13T13:05:14.724Z,61.77
2023-02-13T13:06:40.909Z,61.82
2023-02-13T13:08:01.587Z,62.09
2023-02-13T13:09:22.991Z,61.94
2023-02-13T13:10:38.740Z,62.34
2023-02-13T13:11:50.398Z,62.44
2023-02-13T13:13:09.739Z,62.31
2023-02-13T13:14:33.075Z,62.51
2023-02-13T13:16:06.463Z,62.87
2023-02-13T13:17:20.289Z,63.23
2023-02-13T13:18:48.358Z,62.61
2023-02-13T13:20:35.600Z,63.21
2023-02-13T13:21:53.193Z,63.26
2023-02-13T13:23:19.133Z,63.00
2023-02-13T13:24:42.971Z,63.23
2023-02-13T13:25:51.263Z,63.53
2023-02-13T13:26:57.438Z,63.50
2023-02-13T13:28:08.074Z,63.77
2023-02-13T13:29:17.462Z,63.67
2023-02-13T13:30:25.788Z,63.79
2023-02-13T13:31:28.924Z,63.79
2023-02-13T13:32:34.551Z,63.58
2023-02-13T13:33:40.876Z,64.14
2023-02-13T13:34:45.320Z,64.08
2023-02-13T13:36:12.230Z,64.12
2023-02-13T13:37:23.553Z,64.24
2023-02-13T13:38:42.759Z,64.53
2023-02-13T13:39:58.612Z,65.34
2023-02-13T13:41:35.989Z,65.31
2023-02-13T13:42:49.687Z,65.25
2023-02-13T13:44:13.674Z,65.01
2023-02-13T13:45:26.910Z,65.08
2023-02-13T13:47:17.396Z,64.96
2023-02-13T13:48:38.878Z,65.39
2023-02-13T13:49:43.926Z,65.76
2023-02-13T13:50:47.171Z,66.42
2023-02-13T13:51:49.826Z,66.88
2023-02-13T13:53:13.380Z,66.77
2023-02-13T13:54:15.713Z,67.53
2023-02-13T13:55:52.787Z,67.33
2023-02-13T13:57:02.091Z,67.20
2023-02-13T13:58:04.775Z,67.28
2023-02-13T13:59:18.574Z,66.85
2023-02-13T14:00:28.727Z,66.60
2023-02-13T14:01:31.462Z,66.28
2023-02-13T14:02:56.942Z,66.67
2023-02-13T14:04:34.632Z,67.64
2023-02-13T14:05:58.620Z,67.40
2023-02-13T14:07:00.843Z,67.51
2023-02-13T14:08:24.869Z,67.74
2023-02-13T14:09:26.990Z,67.92
2023-02-13T14:10:29.250Z,68.18
2023-02-13T14:11:45.724Z,68.49
2023-02-13T14:12:59.834Z,68.57
2023-02-13T14:14:22.667Z,68.51
2023-02-13T14:15:33.969Z,68.95
2023-02-13T14:16:46.382Z,69.11
2023-02-13T14:17:52.354Z,69.06
2023-02-13T14:18:55.312Z,69.10
2023-02-13T14:19:58.401Z,69.35
2023-02-13T14:21:03.495Z,69.42
2023-02-13T14:22:20.816Z,69.67
2023-02-13T14:23:50.780Z,69.54
2023-02-13T14:25:07.487Z,68.98
2023-02-13T14:26:17.082Z,68.96
2023-02-13T14:27:25.213Z,69.03
2023-02-13T14:28:27.833Z,68.86
2023-02-13T14:29:33.640Z,68.67
2023-02-13T14:30:38.536Z,68.30
2023-02-13T14:31:43.969Z,68.24
2023-02-13T14:32:46.457Z,68.55
2023-02-13T14:33:56.671Z,68.67
2023-02-13T14:35:23.502Z,68.79
2023-02-13T14:36:33.696Z,68.85
2023-02-13T14:37:40.097Z,68.84
2023-02-13T14:38:42.458Z,69.18
2023-02-13T14:40:10.946Z,69.18
2023-02-13T14:41:43.230Z,69.34
2023-02-13T14:42:58.679Z,69.06
2023-02-13T14:44:01.153Z,68.94
2023-02-13T14:45:11.180Z,68.93
2023-02-13T14:46:36.274Z,68.93
2023-02-13T14:47:45.081Z,69.05
2023-02-13T14:49:08.476Z,69.52
2023-02-13T14:50:53.505Z,69.33
2023-02-13T14:51:58.882Z,69.32
2023-02-13T14:53:08.777Z,69.82